19.9°F
Current conditions from King Hill
Updated every 5 minutes
 
  Friday November 21, 2014

Station Historical Data
Daily Summary for May 27, 2012 Units:  Both    English   Metric
« Previous Day
Next Day »
Daily Weekly Monthly Yearly Custom
  High: Low: Average:
Temperature: 73.9 °F /  23.3 °C 49.5 °F /  9.7 °C 61 °F /  16.1 °C
Dew Point: 55.3 °F /  12.9 °C 44.2 °F /  6.8 °C 48.6 °F /  9.2 °C
Humidity: 88% 41% 66%
Wind Speed: 4.0mph /  6.4km/h - 1.7mph /  2.7km/h
Wind Gust: 9.0mph /  14.5km/h - -
Wind- - WNW
Pressure: 30.17 in /  1021.6 hPa 29.99 in /  1015.5 hPa -
Precipitation: 0.00 in /  0 mm    
Historical Graphs
 
 
Tabular Data for May 27, 2012
Time Temperature Dew Point Pressure Wind Wind Speed Wind Gust Humidity Daily Rainfall
00:04 54.7 °F /  12.6 °C 47.6 °F /  8.7 °C 30.10in /  1019.2hPa Calm     77% 0.00in /  0mm
00:09 54.4 °F /  12.4 °C 47.3 °F /  8.5 °C 30.11in /  1019.5hPa Calm     77% 0.00in /  0mm
00:14 54.2 °F /  12.3 °C 47.2 °F /  8.4 °C 30.10in /  1019.2hPa Calm     77% 0.00in /  0mm
00:19 54.0 °F /  12.2 °C 47.0 °F /  8.3 °C 30.10in /  1019.2hPa Calm     77% 0.00in /  0mm
00:24 53.9 °F /  12.2 °C 46.9 °F /  8.3 °C 30.11in /  1019.5hPa Calm     77% 0.00in /  0mm
00:29 53.9 °F /  12.2 °C 46.9 °F /  8.3 °C 30.11in /  1019.5hPa Calm     77% 0.00in /  0mm
00:34 53.8 °F /  12.1 °C 46.8 °F /  8.2 °C 30.11in /  1019.5hPa Calm     77% 0.00in /  0mm
00:39 53.9 °F /  12.2 °C 46.9 °F /  8.3 °C 30.11in /  1019.5hPa Calm     77% 0.00in /  0mm
00:44 54.0 °F /  12.2 °C 47.3 °F /  8.5 °C 30.11in /  1019.5hPa Calm     78% 0.00in /  0mm
00:49 54.0 °F /  12.2 °C 47.3 °F /  8.5 °C 30.11in /  1019.5hPa Calm     78% 0.00in /  0mm
00:54 54.1 °F /  12.3 °C 47.4 °F /  8.6 °C 30.11in /  1019.5hPa Calm     78% 0.00in /  0mm
00:59 54.2 °F /  12.3 °C 47.5 °F /  8.6 °C 30.11in /  1019.5hPa Calm     78% 0.00in /  0mm
01:04 54.2 °F /  12.3 °C 47.5 °F /  8.6 °C 30.11in /  1019.5hPa Calm     78% 0.00in /  0mm
01:09 54.2 °F /  12.3 °C 47.5 °F /  8.6 °C 30.11in /  1019.5hPa Calm     78% 0.00in /  0mm
01:14 54.0 °F /  12.2 °C 47.3 °F /  8.5 °C 30.11in /  1019.5hPa Calm     78% 0.00in /  0mm
01:19 53.9 °F /  12.2 °C 47.2 °F /  8.4 °C 30.11in /  1019.5hPa Calm     78% 0.00in /  0mm
01:24 53.7 °F /  12.1 °C 46.7 °F /  8.2 °C 30.11in /  1019.5hPa Calm   1.0mph /  1.6km/h 77% 0.00in /  0mm
01:30 53.4 °F /  11.9 °C 46.7 °F /  8.2 °C 30.11in /  1019.5hPa Calm   1.0mph /  1.6km/h 78% 0.00in /  0mm
01:39 53.0 °F /  11.7 °C 45.6 °F /  7.6 °C 30.11in /  1019.5hPa Calm     76% 0.00in /  0mm
01:44 52.8 °F /  11.6 °C 45.1 °F /  7.3 °C 30.11in /  1019.5hPa Calm     75% 0.00in /  0mm
01:49 52.6 °F /  11.4 °C 45.6 °F /  7.6 °C 30.11in /  1019.5hPa Calm     77% 0.00in /  0mm
01:54 52.5 °F /  11.4 °C 45.8 °F /  7.7 °C 30.11in /  1019.5hPa Calm     78% 0.00in /  0mm
01:59 52.2 °F /  11.2 °C 45.6 °F /  7.6 °C 30.11in /  1019.5hPa Calm     78% 0.00in /  0mm
02:04 51.8 °F /  11 °C 45.5 °F /  7.5 °C 30.11in /  1019.5hPa Calm     79% 0.00in /  0mm
02:09 51.5 °F /  10.8 °C 45.2 °F /  7.3 °C 30.11in /  1019.5hPa Calm     79% 0.00in /  0mm
02:14 51.2 °F /  10.7 °C 45.2 °F /  7.3 °C 30.11in /  1019.5hPa Calm     80% 0.00in /  0mm
02:19 51.0 °F /  10.6 °C 45.4 °F /  7.4 °C 30.12in /  1019.9hPa Calm     81% 0.00in /  0mm
02:24 50.8 °F /  10.4 °C 45.2 °F /  7.3 °C 30.11in /  1019.5hPa Calm     81% 0.00in /  0mm
02:29 50.8 °F /  10.4 °C 45.2 °F /  7.3 °C 30.11in /  1019.5hPa Calm     81% 0.00in /  0mm
02:39 51.6 °F /  10.9 °C 45.3 °F /  7.4 °C 30.11in /  1019.5hPa Calm     79% 0.00in /  0mm
02:44 51.7 °F /  10.9 °C 45.4 °F /  7.4 °C 30.11in /  1019.5hPa Calm     79% 0.00in /  0mm
02:49 51.6 °F /  10.9 °C 45.3 °F /  7.4 °C 30.11in /  1019.5hPa Calm     79% 0.00in /  0mm
02:54 51.5 °F /  10.8 °C 45.2 °F /  7.3 °C 30.10in /  1019.2hPa Calm     79% 0.00in /  0mm
02:59 51.5 °F /  10.8 °C 45.5 °F /  7.5 °C 30.10in /  1019.2hPa Calm     80% 0.00in /  0mm
03:04 51.2 °F /  10.7 °C 44.9 °F /  7.2 °C 30.11in /  1019.5hPa Calm     79% 0.00in /  0mm
03:09 50.9 °F /  10.5 °C 45.3 °F /  7.4 °C 30.11in /  1019.5hPa Calm     81% 0.00in /  0mm
03:14 50.6 °F /  10.3 °C 45.3 °F /  7.4 °C 30.11in /  1019.5hPa Calm     82% 0.00in /  0mm
03:19 50.3 °F /  10.2 °C 45.0 °F /  7.2 °C 30.11in /  1019.5hPa Calm     82% 0.00in /  0mm
03:24 49.9 °F /  9.9 °C 44.6 °F /  7 °C 30.10in /  1019.2hPa Calm     82% 0.00in /  0mm
03:29 49.8 °F /  9.9 °C 44.8 °F /  7.1 °C 30.10in /  1019.2hPa Calm     83% 0.00in /  0mm
03:34 49.9 °F /  9.9 °C 44.6 °F /  7 °C 30.10in /  1019.2hPa Calm     82% 0.00in /  0mm
03:40 50.0 °F /  10 °C 44.7 °F /  7.1 °C 30.11in /  1019.5hPa Calm     82% 0.00in /  0mm
03:49 49.8 °F /  9.9 °C 44.8 °F /  7.1 °C 30.11in /  1019.5hPa Calm     83% 0.00in /  0mm
03:54 49.7 °F /  9.8 °C 44.8 °F /  7.1 °C 30.11in /  1019.5hPa Calm     83% 0.00in /  0mm
03:59 49.5 °F /  9.7 °C 44.6 °F /  7 °C 30.11in /  1019.5hPa Calm     83% 0.00in /  0mm
04:04 49.7 °F /  9.8 °C 44.8 °F /  7.1 °C 30.10in /  1019.2hPa Calm     83% 0.00in /  0mm
04:09 49.8 °F /  9.9 °C 44.8 °F /  7.1 °C 30.10in /  1019.2hPa Calm     83% 0.00in /  0mm
04:14 50.2 °F /  10.1 °C 45.2 °F /  7.3 °C 30.10in /  1019.2hPa Calm   1.0mph /  1.6km/h 83% 0.00in /  0mm
04:19 50.4 °F /  10.2 °C 45.1 °F /  7.3 °C 30.11in /  1019.5hPa Calm   1.0mph /  1.6km/h 82% 0.00in /  0mm
04:24 49.8 °F /  9.9 °C 44.2 °F /  6.8 °C 30.11in /  1019.5hPa Calm   1.0mph /  1.6km/h 81% 0.00in /  0mm
04:29 49.7 °F /  9.8 °C 44.8 °F /  7.1 °C 30.11in /  1019.5hPa Calm   1.0mph /  1.6km/h 83% 0.00in /  0mm
04:34 49.7 °F /  9.8 °C 44.8 °F /  7.1 °C 30.12in /  1019.9hPa Calm   1.0mph /  1.6km/h 83% 0.00in /  0mm
04:44 49.6 °F /  9.8 °C 45.0 °F /  7.2 °C 30.12in /  1019.9hPa Calm     84% 0.00in /  0mm
04:49 49.6 °F /  9.8 °C 45.3 °F /  7.4 °C 30.12in /  1019.9hPa Calm     85% 0.00in /  0mm
04:54 49.5 °F /  9.7 °C 45.2 °F /  7.3 °C 30.12in /  1019.9hPa Calm     85% 0.00in /  0mm
04:59 49.5 °F /  9.7 °C 45.2 °F /  7.3 °C 30.13in /  1020.2hPa Calm     85% 0.00in /  0mm
05:04 49.5 °F /  9.7 °C 45.2 °F /  7.3 °C 30.13in /  1020.2hPa Calm     85% 0.00in /  0mm
05:09 49.5 °F /  9.7 °C 45.5 °F /  7.5 °C 30.13in /  1020.2hPa Calm     86% 0.00in /  0mm
05:14 49.8 °F /  9.9 °C 46.1 °F /  7.8 °C 30.14in /  1020.5hPa Calm     87% 0.00in /  0mm
05:19 50.3 °F /  10.2 °C 46.6 °F /  8.1 °C 30.14in /  1020.5hPa Calm     87% 0.00in /  0mm
05:24 50.3 °F /  10.2 °C 46.6 °F /  8.1 °C 30.13in /  1020.2hPa Calm     87% 0.00in /  0mm
05:30 50.3 °F /  10.2 °C 46.6 °F /  8.1 °C 30.14in /  1020.5hPa Calm     87% 0.00in /  0mm
05:39 50.6 °F /  10.3 °C 47.2 °F /  8.4 °C 30.14in /  1020.5hPa Calm     88% 0.00in /  0mm
05:44 50.9 °F /  10.5 °C 47.5 °F /  8.6 °C 30.14in /  1020.5hPa Calm     88% 0.00in /  0mm
05:49 51.1 °F /  10.6 °C 47.7 °F /  8.7 °C 30.15in /  1020.9hPa Calm     88% 0.00in /  0mm
05:54 51.3 °F /  10.7 °C 47.9 °F /  8.8 °C 30.15in /  1020.9hPa Calm     88% 0.00in /  0mm
05:59 51.4 °F /  10.8 °C 48.0 °F /  8.9 °C 30.15in /  1020.9hPa Calm     88% 0.00in /  0mm
06:04 51.5 °F /  10.8 °C 48.1 °F /  8.9 °C 30.15in /  1020.9hPa Calm   1.0mph /  1.6km/h 88% 0.00in /  0mm
06:09 51.6 °F /  10.9 °C 47.9 °F /  8.8 °C 30.16in /  1021.2hPa Calm   4.0mph /  6.4km/h 87% 0.00in /  0mm
06:14 51.8 °F /  11 °C 48.1 °F /  8.9 °C 30.15in /  1020.9hPa Calm   4.0mph /  6.4km/h 87% 0.00in /  0mm
06:19 52.0 °F /  11.1 °C 47.6 °F /  8.7 °C 30.16in /  1021.2hPa Calm   2.0mph /  3.2km/h 85% 0.00in /  0mm
06:24 52.3 °F /  11.3 °C 47.9 °F /  8.8 °C 30.16in /  1021.2hPa Calm   1.0mph /  1.6km/h 85% 0.00in /  0mm
06:29 52.5 °F /  11.4 °C 48.1 °F /  8.9 °C 30.16in /  1021.2hPa Calm   1.0mph /  1.6km/h 85% 0.00in /  0mm
06:35 52.6 °F /  11.4 °C 48.2 °F /  9 °C 30.16in /  1021.2hPa Calm     85% 0.00in /  0mm
06:44 52.7 °F /  11.5 °C 48.3 °F /  9.1 °C 30.16in /  1021.2hPa Calm     85% 0.00in /  0mm
06:49 52.7 °F /  11.5 °C 48.3 °F /  9.1 °C 30.16in /  1021.2hPa Calm     85% 0.00in /  0mm
06:54 52.8 °F /  11.6 °C 48.4 °F /  9.1 °C 30.16in /  1021.2hPa Calm     85% 0.00in /  0mm
06:59 53.0 °F /  11.7 °C 48.3 °F /  9.1 °C 30.16in /  1021.2hPa Calm     84% 0.00in /  0mm
07:04 53.4 °F /  11.9 °C 48.7 °F /  9.3 °C 30.16in /  1021.2hPa Calm     84% 0.00in /  0mm
07:09 53.9 °F /  12.2 °C 48.9 °F /  9.4 °C 30.16in /  1021.2hPa Calm     83% 0.00in /  0mm
07:14 54.4 °F /  12.4 °C 49.3 °F /  9.6 °C 30.16in /  1021.2hPa Calm     83% 0.00in /  0mm
07:19 55.0 °F /  12.8 °C 49.9 °F /  9.9 °C 30.16in /  1021.2hPa Calm   1.0mph /  1.6km/h 83% 0.00in /  0mm
07:24 55.5 °F /  13.1 °C 49.8 °F /  9.9 °C 30.16in /  1021.2hPa Calm   1.0mph /  1.6km/h 81% 0.00in /  0mm
07:29 56.0 °F /  13.3 °C 50.3 °F /  10.2 °C 30.17in /  1021.6hPa Calm     81% 0.00in /  0mm
07:34 56.4 °F /  13.6 °C 50.3 °F /  10.2 °C 30.16in /  1021.2hPa Calm     80% 0.00in /  0mm
07:44 57.1 °F /  13.9 °C 50.7 °F /  10.4 °C 30.16in /  1021.2hPa Calm     79% 0.00in /  0mm
07:49 57.8 °F /  14.3 °C 50.6 °F /  10.3 °C 30.16in /  1021.2hPa Calm     77% 0.00in /  0mm
07:59 59.0 °F /  15 °C 49.6 °F /  9.8 °C 30.15in /  1020.9hPa Calm     71% 0.00in /  0mm
08:04 60.2 °F /  15.7 °C 51.9 °F /  11.1 °C 30.16in /  1021.2hPa Calm   1.0mph /  1.6km/h 74% 0.00in /  0mm
08:09 60.5 °F /  15.8 °C 51.4 °F /  10.8 °C 30.16in /  1021.2hPa Calm   1.0mph /  1.6km/h 72% 0.00in /  0mm
08:14 61.1 °F /  16.2 °C 52.0 °F /  11.1 °C 30.16in /  1021.2hPa Calm   1.0mph /  1.6km/h 72% 0.00in /  0mm
08:19 62.1 °F /  16.7 °C 52.2 °F /  11.2 °C 30.16in /  1021.2hPa Calm     70% 0.00in /  0mm
08:24 63.3 °F /  17.4 °C 53.7 °F /  12.1 °C 30.16in /  1021.2hPa Calm     71% 0.00in /  0mm
08:29 63.8 °F /  17.7 °C 53.0 °F /  11.7 °C 30.16in /  1021.2hPa Calm     68% 0.00in /  0mm
08:34 64.1 °F /  17.8 °C 53.7 °F /  12.1 °C 30.15in /  1020.9hPa Calm     69% 0.00in /  0mm
08:39 64.0 °F /  17.8 °C 52.8 °F /  11.6 °C 30.15in /  1020.9hPa Calm     67% 0.00in /  0mm
08:44 63.8 °F /  17.7 °C 52.6 °F /  11.4 °C 30.14in /  1020.5hPa Calm   1.0mph /  1.6km/h 67% 0.00in /  0mm
08:49 63.5 °F /  17.5 °C 53.6 °F /  12 °C 30.14in /  1020.5hPa Calm   1.0mph /  1.6km/h 70% 0.00in /  0mm
08:54 63.4 °F /  17.4 °C 53.8 °F /  12.1 °C 30.14in /  1020.5hPa Calm     71% 0.00in /  0mm
08:59 63.2 °F /  17.3 °C 52.9 °F /  11.6 °C 30.14in /  1020.5hPa Calm     69% 0.00in /  0mm
09:04 63.0 °F /  17.2 °C 53.1 °F /  11.7 °C 30.15in /  1020.9hPa SSW 1.0mph /  1.6km/h 4.0mph /  6.4km/h 70% 0.00in /  0mm
09:09 62.7 °F /  17.1 °C 53.2 °F /  11.8 °C 30.15in /  1020.9hPa WSW 1.0mph /  1.6km/h 4.0mph /  6.4km/h 71% 0.00in /  0mm
09:14 62.5 °F /  16.9 °C 53.4 °F /  11.9 °C 30.15in /  1020.9hPa Calm   4.0mph /  6.4km/h 72% 0.00in /  0mm
09:19 62.6 °F /  17 °C 53.5 °F /  11.9 °C 30.15in /  1020.9hPa Calm   2.0mph /  3.2km/h 72% 0.00in /  0mm
09:24 62.9 °F /  17.2 °C 54.5 °F /  12.5 °C 30.15in /  1020.9hPa Calm   2.0mph /  3.2km/h 74% 0.00in /  0mm
09:29 63.2 °F /  17.3 °C 53.7 °F /  12.1 °C 30.15in /  1020.9hPa Calm   2.0mph /  3.2km/h 71% 0.00in /  0mm
09:39 63.6 °F /  17.6 °C 53.6 °F /  12 °C 30.15in /  1020.9hPa NW 1.0mph /  1.6km/h 3.0mph /  4.8km/h 70% 0.00in /  0mm
09:44 64.1 °F /  17.8 °C 55.3 °F /  12.9 °C 30.15in /  1020.9hPa Calm   3.0mph /  4.8km/h 73% 0.00in /  0mm
09:49 64.4 °F /  18 °C 53.6 °F /  12 °C 30.15in /  1020.9hPa Calm   3.0mph /  4.8km/h 68% 0.00in /  0mm
09:54 65.1 °F /  18.4 °C 52.2 °F /  11.2 °C 30.15in /  1020.9hPa Calm   3.0mph /  4.8km/h 63% 0.00in /  0mm
09:59 65.2 °F /  18.4 °C 53.2 °F /  11.8 °C 30.15in /  1020.9hPa West 2.0mph /  3.2km/h 5.0mph /  8km/h 65% 0.00in /  0mm
10:04 65.1 °F /  18.4 °C 53.5 °F /  11.9 °C 30.15in /  1020.9hPa Calm   5.0mph /  8km/h 66% 0.00in /  0mm
10:09 64.9 °F /  18.3 °C 53.3 °F /  11.8 °C 30.15in /  1020.9hPa Calm   1.0mph /  1.6km/h 66% 0.00in /  0mm
10:14 65.0 °F /  18.3 °C 53.0 °F /  11.7 °C 30.15in /  1020.9hPa Calm   1.0mph /  1.6km/h 65% 0.00in /  0mm
10:19 65.5 °F /  18.6 °C 53.0 °F /  11.7 °C 30.15in /  1020.9hPa Calm   1.0mph /  1.6km/h 64% 0.00in /  0mm
10:24 65.6 °F /  18.7 °C 52.2 °F /  11.2 °C 30.15in /  1020.9hPa WNW 2.0mph /  3.2km/h 6.0mph /  9.7km/h 62% 0.00in /  0mm
10:29 65.4 °F /  18.6 °C 51.2 °F /  10.7 °C 30.15in /  1020.9hPa WNW 1.0mph /  1.6km/h 6.0mph /  9.7km/h 60% 0.00in /  0mm
10:34 65.7 °F /  18.7 °C 51.9 °F /  11.1 °C 30.15in /  1020.9hPa WNW 3.0mph /  4.8km/h 8.0mph /  12.9km/h 61% 0.00in /  0mm
10:39 66.3 °F /  19.1 °C 51.1 °F /  10.6 °C 30.15in /  1020.9hPa Calm   8.0mph /  12.9km/h 58% 0.00in /  0mm
10:44 66.5 °F /  19.2 °C 51.7 °F /  10.9 °C 30.15in /  1020.9hPa Calm   6.0mph /  9.7km/h 59% 0.00in /  0mm
10:49 67.1 °F /  19.5 °C 54.1 °F /  12.3 °C 30.14in /  1020.5hPa Calm   3.0mph /  4.8km/h 63% 0.00in /  0mm
10:54 67.6 °F /  19.8 °C 51.4 °F /  10.8 °C 30.14in /  1020.5hPa Calm   1.0mph /  1.6km/h 56% 0.00in /  0mm
10:59 67.9 °F /  19.9 °C 51.6 °F /  10.9 °C 30.14in /  1020.5hPa Calm   7.0mph /  11.3km/h 56% 0.00in /  0mm
11:04 68.1 °F /  20.1 °C 51.8 °F /  11 °C 30.14in /  1020.5hPa Calm   7.0mph /  11.3km/h 56% 0.00in /  0mm
11:09 68.6 °F /  20.3 °C 50.3 °F /  10.2 °C 30.14in /  1020.5hPa NW 1.0mph /  1.6km/h 4.0mph /  6.4km/h 52% 0.00in /  0mm
11:14 68.5 °F /  20.3 °C 49.7 °F /  9.8 °C 30.14in /  1020.5hPa NW 1.0mph /  1.6km/h 6.0mph /  9.7km/h 51% 0.00in /  0mm
11:19 68.1 °F /  20.1 °C 50.3 °F /  10.2 °C 30.14in /  1020.5hPa WNW 1.0mph /  1.6km/h 6.0mph /  9.7km/h 53% 0.00in /  0mm
11:24 67.9 °F /  19.9 °C 50.2 °F /  10.1 °C 30.14in /  1020.5hPa West 2.0mph /  3.2km/h 5.0mph /  8km/h 53% 0.00in /  0mm
11:29 67.6 °F /  19.8 °C 48.3 °F /  9.1 °C 30.14in /  1020.5hPa WNW 3.0mph /  4.8km/h 8.0mph /  12.9km/h 50% 0.00in /  0mm
11:34 67.6 °F /  19.8 °C 50.9 °F /  10.5 °C 30.14in /  1020.5hPa WNW 3.0mph /  4.8km/h 8.0mph /  12.9km/h 55% 0.00in /  0mm
11:39 68.4 °F /  20.2 °C 53.5 °F /  11.9 °C 30.14in /  1020.5hPa Calm   6.0mph /  9.7km/h 59% 0.00in /  0mm
11:44 68.9 °F /  20.5 °C 51.1 °F /  10.6 °C 30.14in /  1020.5hPa Calm   5.0mph /  8km/h 53% 0.00in /  0mm
11:49 69.4 °F /  20.8 °C 51.0 °F /  10.6 °C 30.14in /  1020.5hPa Calm   5.0mph /  8km/h 52% 0.00in /  0mm
11:54 69.3 °F /  20.7 °C 49.9 °F /  9.9 °C 30.14in /  1020.5hPa NW 1.0mph /  1.6km/h 6.0mph /  9.7km/h 50% 0.00in /  0mm
11:59 69.4 °F /  20.8 °C 52.1 °F /  11.2 °C 30.13in /  1020.2hPa WNW 1.0mph /  1.6km/h 6.0mph /  9.7km/h 54% 0.00in /  0mm
12:04 69.3 °F /  20.7 °C 48.2 °F /  9 °C 30.13in /  1020.2hPa NW 3.0mph /  4.8km/h 8.0mph /  12.9km/h 47% 0.00in /  0mm
12:09 68.8 °F /  20.4 °C 49.4 °F /  9.7 °C 30.13in /  1020.2hPa WNW 1.0mph /  1.6km/h 8.0mph /  12.9km/h 50% 0.00in /  0mm
12:14 69.0 °F /  20.6 °C 49.1 °F /  9.5 °C 30.13in /  1020.2hPa WNW 2.0mph /  3.2km/h 8.0mph /  12.9km/h 49% 0.00in /  0mm
12:19 69.1 °F /  20.6 °C 51.3 °F /  10.7 °C 30.13in /  1020.2hPa Calm   8.0mph /  12.9km/h 53% 0.00in /  0mm
12:24 69.5 °F /  20.8 °C 49.5 °F /  9.7 °C 30.13in /  1020.2hPa Calm   4.0mph /  6.4km/h 49% 0.00in /  0mm
12:29 69.4 °F /  20.8 °C 47.7 °F /  8.7 °C 30.13in /  1020.2hPa Calm   6.0mph /  9.7km/h 46% 0.00in /  0mm
12:34 69.8 °F /  21 °C 48.7 °F /  9.3 °C 30.13in /  1020.2hPa Calm   6.0mph /  9.7km/h 47% 0.00in /  0mm
12:39 70.0 °F /  21.1 °C 48.3 °F /  9.1 °C 30.13in /  1020.2hPa Calm   5.0mph /  8km/h 46% 0.00in /  0mm
12:44 70.0 °F /  21.1 °C 46.5 °F /  8.1 °C 30.13in /  1020.2hPa Calm   5.0mph /  8km/h 43% 0.00in /  0mm
12:49 70.4 °F /  21.3 °C 50.3 °F /  10.2 °C 30.12in /  1019.9hPa Calm   4.0mph /  6.4km/h 49% 0.00in /  0mm
12:54 70.6 °F /  21.4 °C 48.8 °F /  9.3 °C 30.12in /  1019.9hPa Calm   1.0mph /  1.6km/h 46% 0.00in /  0mm
12:59 70.5 °F /  21.4 °C 48.2 °F /  9 °C 30.12in /  1019.9hPa Calm   3.0mph /  4.8km/h 45% 0.00in /  0mm
13:04 69.9 °F /  21.1 °C 47.6 °F /  8.7 °C 30.12in /  1019.9hPa Calm   3.0mph /  4.8km/h 45% 0.00in /  0mm
13:09 69.5 °F /  20.8 °C 48.4 °F /  9.1 °C 30.12in /  1019.9hPa Calm   1.0mph /  1.6km/h 47% 0.00in /  0mm
13:14 69.2 °F /  20.7 °C 45.8 °F /  7.7 °C 30.12in /  1019.9hPa WNW 1.0mph /  1.6km/h 6.0mph /  9.7km/h 43% 0.00in /  0mm
13:19 69.3 °F /  20.7 °C 48.2 °F /  9 °C 30.11in /  1019.5hPa Calm   6.0mph /  9.7km/h 47% 0.00in /  0mm
13:24 69.9 °F /  21.1 °C 47.6 °F /  8.7 °C 30.12in /  1019.9hPa Calm   1.0mph /  1.6km/h 45% 0.00in /  0mm
13:29 70.1 °F /  21.2 °C 47.2 °F /  8.4 °C 30.12in /  1019.9hPa Calm   4.0mph /  6.4km/h 44% 0.00in /  0mm
13:34 70.3 °F /  21.3 °C 49.1 °F /  9.5 °C 30.11in /  1019.5hPa Calm   4.0mph /  6.4km/h 47% 0.00in /  0mm
13:44 70.3 °F /  21.3 °C 50.8 °F /  10.4 °C 30.11in /  1019.5hPa Calm   4.0mph /  6.4km/h 50% 0.00in /  0mm
13:54 71.1 °F /  21.7 °C 49.3 °F /  9.6 °C 30.10in /  1019.2hPa Calm     46% 0.00in /  0mm
13:59 70.7 °F /  21.5 °C 47.1 °F /  8.4 °C 30.10in /  1019.2hPa Calm   3.0mph /  4.8km/h 43% 0.00in /  0mm
14:04 70.2 °F /  21.2 °C 48.5 °F /  9.2 °C 30.10in /  1019.2hPa Calm   4.0mph /  6.4km/h 46% 0.00in /  0mm
14:09 70.2 °F /  21.2 °C 47.9 °F /  8.8 °C 30.10in /  1019.2hPa Calm   4.0mph /  6.4km/h 45% 0.00in /  0mm
14:14 70.8 °F /  21.6 °C 50.7 °F /  10.4 °C 30.10in /  1019.2hPa Calm   1.0mph /  1.6km/h 49% 0.00in /  0mm
14:19 71.2 °F /  21.8 °C 47.6 °F /  8.7 °C 30.09in /  1018.8hPa Calm   1.0mph /  1.6km/h 43% 0.00in /  0mm
14:24 70.8 °F /  21.6 °C 47.2 °F /  8.4 °C 30.09in /  1018.8hPa Calm   1.0mph /  1.6km/h 43% 0.00in /  0mm
14:29 71.3 °F /  21.8 °C 48.3 °F /  9.1 °C 30.09in /  1018.8hPa Calm   1.0mph /  1.6km/h 44% 0.00in /  0mm
14:34 71.9 °F /  22.2 °C 51.7 °F /  10.9 °C 30.09in /  1018.8hPa Calm   3.0mph /  4.8km/h 49% 0.00in /  0mm
14:44 72.5 °F /  22.5 °C 50.6 °F /  10.3 °C 30.09in /  1018.8hPa West 1.0mph /  1.6km/h 5.0mph /  8km/h 46% 0.00in /  0mm
14:49 71.7 °F /  22.1 °C 49.2 °F /  9.6 °C 30.09in /  1018.8hPa West 1.0mph /  1.6km/h 5.0mph /  8km/h 45% 0.00in /  0mm
14:54 71.6 °F /  22 °C 50.3 °F /  10.2 °C 30.08in /  1018.5hPa WNW 2.0mph /  3.2km/h 5.0mph /  8km/h 47% 0.00in /  0mm
14:59 72.3 °F /  22.4 °C 53.2 °F /  11.8 °C 30.08in /  1018.5hPa Calm   5.0mph /  8km/h 51% 0.00in /  0mm
15:04 73.0 °F /  22.8 °C 52.2 °F /  11.2 °C 30.08in /  1018.5hPa Calm   4.0mph /  6.4km/h 48% 0.00in /  0mm
15:14 73.6 °F /  23.1 °C 51.6 °F /  10.9 °C 30.08in /  1018.5hPa WNW 2.0mph /  3.2km/h 6.0mph /  9.7km/h 46% 0.00in /  0mm
15:19 73.4 °F /  23 °C 48.9 °F /  9.4 °C 30.08in /  1018.5hPa Calm   6.0mph /  9.7km/h 42% 0.00in /  0mm
15:24 73.6 °F /  23.1 °C 50.4 °F /  10.2 °C 30.08in /  1018.5hPa Calm   4.0mph /  6.4km/h 44% 0.00in /  0mm
15:29 73.9 °F /  23.3 °C 50.6 °F /  10.3 °C 30.08in /  1018.5hPa Calm   1.0mph /  1.6km/h 44% 0.00in /  0mm
15:34 72.9 °F /  22.7 °C 50.3 °F /  10.2 °C 30.08in /  1018.5hPa Calm   3.0mph /  4.8km/h 45% 0.00in /  0mm
15:39 71.6 °F /  22 °C 50.3 °F /  10.2 °C 30.08in /  1018.5hPa Calm   5.0mph /  8km/h 47% 0.00in /  0mm
15:44 72.0 °F /  22.2 °C 50.7 °F /  10.4 °C 30.08in /  1018.5hPa Calm   5.0mph /  8km/h 47% 0.00in /  0mm
15:49 72.6 °F /  22.6 °C 48.2 °F /  9 °C 30.07in /  1018.2hPa Calm   5.0mph /  8km/h 42% 0.00in /  0mm
15:59 73.2 °F /  22.9 °C 51.8 °F /  11 °C 30.07in /  1018.2hPa Calm   6.0mph /  9.7km/h 47% 0.00in /  0mm
16:04 73.5 °F /  23.1 °C 53.2 °F /  11.8 °C 30.07in /  1018.2hPa Calm   8.0mph /  12.9km/h 49% 0.00in /  0mm
16:09 73.7 °F /  23.2 °C 51.7 °F /  10.9 °C 30.07in /  1018.2hPa WNW 4.0mph /  6.4km/h 9.0mph /  14.5km/h 46% 0.00in /  0mm
16:14 72.8 °F /  22.7 °C 49.0 °F /  9.4 °C 30.07in /  1018.2hPa WNW 1.0mph /  1.6km/h 9.0mph /  14.5km/h 43% 0.00in /  0mm
16:19 72.7 °F /  22.6 °C 50.2 °F /  10.1 °C 30.07in /  1018.2hPa Calm   5.0mph /  8km/h 45% 0.00in /  0mm
16:24 73.1 °F /  22.8 °C 49.9 °F /  9.9 °C 30.06in /  1017.8hPa Calm   7.0mph /  11.3km/h 44% 0.00in /  0mm
16:29 73.6 °F /  23.1 °C 50.4 °F /  10.2 °C 30.06in /  1017.8hPa Calm   7.0mph /  11.3km/h 44% 0.00in /  0mm
16:39 73.7 °F /  23.2 °C 48.6 °F /  9.2 °C 30.06in /  1017.8hPa NW 1.0mph /  1.6km/h 8.0mph /  12.9km/h 41% 0.00in /  0mm
16:44 73.4 °F /  23 °C 48.9 °F /  9.4 °C 30.06in /  1017.8hPa Calm   8.0mph /  12.9km/h 42% 0.00in /  0mm
16:49 72.2 °F /  22.3 °C 49.7 °F /  9.8 °C 30.06in /  1017.8hPa Calm   5.0mph /  8km/h 45% 0.00in /  0mm
16:54 71.4 °F /  21.9 °C 51.3 °F /  10.7 °C 30.06in /  1017.8hPa Calm   5.0mph /  8km/h 49% 0.00in /  0mm
16:59 70.4 °F /  21.3 °C 47.5 °F /  8.6 °C 30.06in /  1017.8hPa Calm   4.0mph /  6.4km/h 44% 0.00in /  0mm
17:04 70.0 °F /  21.1 °C 50.5 °F /  10.3 °C 30.06in /  1017.8hPa Calm   4.0mph /  6.4km/h 50% 0.00in /  0mm
17:09 70.1 °F /  21.2 °C 49.0 °F /  9.4 °C 30.06in /  1017.8hPa Calm   1.0mph /  1.6km/h 47% 0.00in /  0mm
17:14 69.4 °F /  20.8 °C 50.5 °F /  10.3 °C 30.06in /  1017.8hPa Calm   3.0mph /  4.8km/h 51% 0.00in /  0mm
17:19 69.0 °F /  20.6 °C 51.7 °F /  10.9 °C 30.06in /  1017.8hPa Calm   3.0mph /  4.8km/h 54% 0.00in /  0mm
17:24 68.4 °F /  20.2 °C 48.5 °F /  9.2 °C 30.06in /  1017.8hPa Calm   1.0mph /  1.6km/h 49% 0.00in /  0mm
17:29 68.1 °F /  20.1 °C 48.8 °F /  9.3 °C 30.06in /  1017.8hPa Calm   1.0mph /  1.6km/h 50% 0.00in /  0mm
17:34 67.8 °F /  19.9 °C 48.5 °F /  9.2 °C 30.06in /  1017.8hPa Calm   2.0mph /  3.2km/h 50% 0.00in /  0mm
17:44 67.1 °F /  19.5 °C 47.9 °F /  8.8 °C 30.06in /  1017.8hPa Calm   4.0mph /  6.4km/h 50% 0.00in /  0mm
17:49 66.7 °F /  19.3 °C 48.0 °F /  8.9 °C 30.06in /  1017.8hPa Calm   4.0mph /  6.4km/h 51% 0.00in /  0mm
17:54 66.4 °F /  19.1 °C 48.3 °F /  9.1 °C 30.06in /  1017.8hPa Calm   1.0mph /  1.6km/h 52% 0.00in /  0mm
17:59 66.1 °F /  18.9 °C 48.0 °F /  8.9 °C 30.05in /  1017.5hPa Calm   1.0mph /  1.6km/h 52% 0.00in /  0mm
18:04 65.9 °F /  18.8 °C 49.3 °F /  9.6 °C 30.05in /  1017.5hPa Calm   1.0mph /  1.6km/h 55% 0.00in /  0mm
18:09 65.7 °F /  18.7 °C 48.1 °F /  8.9 °C 30.05in /  1017.5hPa Calm   1.0mph /  1.6km/h 53% 0.00in /  0mm
18:14 65.5 °F /  18.6 °C 46.9 °F /  8.3 °C 30.05in /  1017.5hPa Calm   1.0mph /  1.6km/h 51% 0.00in /  0mm
18:19 65.3 °F /  18.5 °C 47.7 °F /  8.7 °C 30.05in /  1017.5hPa Calm   1.0mph /  1.6km/h 53% 0.00in /  0mm
18:24 65.0 °F /  18.3 °C 47.5 °F /  8.6 °C 30.05in /  1017.5hPa Calm     53% 0.00in /  0mm
18:29 64.7 °F /  18.2 °C 46.2 °F /  7.9 °C 30.05in /  1017.5hPa Calm   1.0mph /  1.6km/h 51% 0.00in /  0mm
18:34 64.5 °F /  18.1 °C 47.0 °F /  8.3 °C 30.05in /  1017.5hPa Calm   1.0mph /  1.6km/h 53% 0.00in /  0mm
18:39 64.1 °F /  17.8 °C 48.6 °F /  9.2 °C 30.05in /  1017.5hPa Calm     57% 0.00in /  0mm
18:44 63.8 °F /  17.7 °C 47.3 °F /  8.5 °C 30.05in /  1017.5hPa Calm     55% 0.00in /  0mm
18:54 63.2 °F /  17.3 °C 46.3 °F /  7.9 °C 30.05in /  1017.5hPa Calm   1.0mph /  1.6km/h 54% 0.00in /  0mm
18:59 63.0 °F /  17.2 °C 46.6 °F /  8.1 °C 30.05in /  1017.5hPa Calm   1.0mph /  1.6km/h 55% 0.00in /  0mm
19:04 62.6 °F /  17 °C 48.1 °F /  8.9 °C 30.04in /  1017.2hPa Calm     59% 0.00in /  0mm
19:09 62.2 °F /  16.8 °C 47.3 °F /  8.5 °C 30.04in /  1017.2hPa Calm     58% 0.00in /  0mm
19:14 61.9 °F /  16.6 °C 47.9 °F /  8.8 °C 30.04in /  1017.2hPa Calm     60% 0.00in /  0mm
19:19 61.7 °F /  16.5 °C 48.6 °F /  9.2 °C 30.04in /  1017.2hPa Calm     62% 0.00in /  0mm
19:24 61.5 °F /  16.4 °C 47.5 °F /  8.6 °C 30.04in /  1017.2hPa Calm     60% 0.00in /  0mm
19:29 61.3 °F /  16.3 °C 47.7 °F /  8.7 °C 30.04in /  1017.2hPa Calm     61% 0.00in /  0mm
19:34 61.0 °F /  16.1 °C 46.6 °F /  8.1 °C 30.03in /  1016.8hPa Calm     59% 0.00in /  0mm
19:39 60.9 °F /  16.1 °C 46.9 °F /  8.3 °C 30.03in /  1016.8hPa Calm     60% 0.00in /  0mm
19:44 60.7 °F /  15.9 °C 47.2 °F /  8.4 °C 30.03in /  1016.8hPa Calm     61% 0.00in /  0mm
19:54 60.4 °F /  15.8 °C 46.5 °F /  8.1 °C 30.04in /  1017.2hPa Calm     60% 0.00in /  0mm
19:59 60.3 °F /  15.7 °C 49.3 °F /  9.6 °C 30.03in /  1016.8hPa Calm     67% 0.00in /  0mm
20:04 60.2 °F /  15.7 °C 48.8 °F /  9.3 °C 30.03in /  1016.8hPa Calm     66% 0.00in /  0mm
20:09 59.9 °F /  15.5 °C 47.3 °F /  8.5 °C 30.03in /  1016.8hPa Calm     63% 0.00in /  0mm
20:14 59.7 °F /  15.4 °C 46.2 °F /  7.9 °C 30.03in /  1016.8hPa Calm     61% 0.00in /  0mm
20:19 59.8 °F /  15.4 °C 47.6 °F /  8.7 °C 30.03in /  1016.8hPa Calm     64% 0.00in /  0mm
20:24 59.7 °F /  15.4 °C 48.7 °F /  9.3 °C 30.03in /  1016.8hPa Calm     67% 0.00in /  0mm
20:29 59.5 °F /  15.3 °C 48.5 °F /  9.2 °C 30.03in /  1016.8hPa Calm     67% 0.00in /  0mm
20:34 59.3 °F /  15.2 °C 49.1 °F /  9.5 °C 30.03in /  1016.8hPa Calm     69% 0.00in /  0mm
20:39 59.0 °F /  15 °C 48.9 °F /  9.4 °C 30.03in /  1016.8hPa Calm     69% 0.00in /  0mm
20:44 59.0 °F /  15 °C 49.2 °F /  9.6 °C 30.03in /  1016.8hPa Calm     70% 0.00in /  0mm
20:49 59.0 °F /  15 °C 47.3 °F /  8.5 °C 30.02in /  1016.5hPa Calm     65% 0.00in /  0mm
20:54 59.0 °F /  15 °C 47.3 °F /  8.5 °C 30.02in /  1016.5hPa Calm     65% 0.00in /  0mm
21:04 59.0 °F /  15 °C 47.7 °F /  8.7 °C 30.03in /  1016.8hPa Calm     66% 0.00in /  0mm
21:09 59.0 °F /  15 °C 46.8 °F /  8.2 °C 30.02in /  1016.5hPa Calm     64% 0.00in /  0mm
21:14 59.1 °F /  15.1 °C 46.9 °F /  8.3 °C 30.03in /  1016.8hPa Calm   1.0mph /  1.6km/h 64% 0.00in /  0mm
21:19 59.2 °F /  15.1 °C 47.5 °F /  8.6 °C 30.03in /  1016.8hPa Calm   1.0mph /  1.6km/h 65% 0.00in /  0mm
21:24 59.0 °F /  15 °C 46.4 °F /  8 °C 30.02in /  1016.5hPa Calm     63% 0.00in /  0mm
21:29 59.0 °F /  15 °C 47.7 °F /  8.7 °C 30.02in /  1016.5hPa Calm     66% 0.00in /  0mm
21:34 59.0 °F /  15 °C 48.9 °F /  9.4 °C 30.02in /  1016.5hPa Calm     69% 0.00in /  0mm
21:39 58.8 °F /  14.9 °C 47.1 °F /  8.4 °C 30.02in /  1016.5hPa Calm     65% 0.00in /  0mm
21:44 58.9 °F /  14.9 °C 48.0 °F /  8.9 °C 30.01in /  1016.1hPa Calm     67% 0.00in /  0mm
21:49 59.0 °F /  15 °C 47.3 °F /  8.5 °C 30.00in /  1015.8hPa Calm     65% 0.00in /  0mm
21:54 59.0 °F /  15 °C 47.3 °F /  8.5 °C 30.00in /  1015.8hPa Calm   1.0mph /  1.6km/h 65% 0.00in /  0mm
21:59 59.0 °F /  15 °C 47.7 °F /  8.7 °C 30.00in /  1015.8hPa Calm   1.0mph /  1.6km/h 66% 0.00in /  0mm
22:04 59.0 °F /  15 °C 48.1 °F /  8.9 °C 30.00in /  1015.8hPa Calm     67% 0.00in /  0mm
22:09 59.0 °F /  15 °C 47.7 °F /  8.7 °C 30.00in /  1015.8hPa Calm     66% 0.00in /  0mm
22:14 59.0 °F /  15 °C 48.1 °F /  8.9 °C 30.00in /  1015.8hPa Calm     67% 0.00in /  0mm
22:19 59.0 °F /  15 °C 47.3 °F /  8.5 °C 30.01in /  1016.1hPa Calm     65% 0.00in /  0mm
22:24 59.0 °F /  15 °C 47.7 °F /  8.7 °C 30.01in /  1016.1hPa Calm     66% 0.00in /  0mm
22:30 59.0 °F /  15 °C 48.9 °F /  9.4 °C 30.01in /  1016.1hPa Calm     69% 0.00in /  0mm
22:39 58.7 °F /  14.8 °C 48.2 °F /  9 °C 30.02in /  1016.5hPa Calm     68% 0.00in /  0mm
22:44 58.4 °F /  14.7 °C 48.3 °F /  9.1 °C 30.02in /  1016.5hPa Calm     69% 0.00in /  0mm
22:49 58.3 °F /  14.6 °C 48.2 °F /  9 °C 30.02in /  1016.5hPa Calm     69% 0.00in /  0mm
22:54 58.2 °F /  14.6 °C 47.3 °F /  8.5 °C 30.02in /  1016.5hPa Calm     67% 0.00in /  0mm
22:59 58.3 °F /  14.6 °C 47.8 °F /  8.8 °C 30.02in /  1016.5hPa Calm     68% 0.00in /  0mm
23:04 58.5 °F /  14.7 °C 49.9 °F /  9.9 °C 30.01in /  1016.1hPa Calm     73% 0.00in /  0mm
23:09 58.4 °F /  14.7 °C 48.7 °F /  9.3 °C 30.01in /  1016.1hPa Calm     70% 0.00in /  0mm
23:14 58.4 °F /  14.7 °C 47.9 °F /  8.8 °C 30.01in /  1016.1hPa Calm     68% 0.00in /  0mm
23:19 58.4 °F /  14.7 °C 48.3 °F /  9.1 °C 30.01in /  1016.1hPa Calm     69% 0.00in /  0mm
23:24 58.3 °F /  14.6 °C 47.8 °F /  8.8 °C 30.01in /  1016.1hPa Calm     68% 0.00in /  0mm
23:29 58.2 °F /  14.6 °C 48.9 °F /  9.4 °C 30.01in /  1016.1hPa Calm   1.0mph /  1.6km/h 71% 0.00in /  0mm
23:34 58.1 °F /  14.5 °C 49.1 °F /  9.5 °C 30.00in /  1015.8hPa Calm   1.0mph /  1.6km/h 72% 0.00in /  0mm
23:44 57.4 °F /  14.1 °C 49.2 °F /  9.6 °C 29.99in /  1015.5hPa Calm   1.0mph /  1.6km/h 74% 0.00in /  0mm
23:49 56.9 °F /  13.8 °C 48.7 °F /  9.3 °C 29.99in /  1015.5hPa Calm     74% 0.00in /  0mm
23:54 56.5 °F /  13.6 °C 49.0 °F /  9.4 °C 29.99in /  1015.5hPa Calm     76% 0.00in /  0mm
23:59 56.4 °F /  13.6 °C 49.3 °F /  9.6 °C 29.99in /  1015.5hPa Calm     77% 0.00in /  0mm
Westford Weather
Compliments of Weather Underground

 
 
Current Radar Loop:

Copyright © WestfordWeather.net 2007-2014. All rights reserved.